createdAt,value
2022-09-11T00:01:39.602Z,16.00
2022-09-11T00:04:06.301Z,16.10
2022-09-11T00:06:32.997Z,16.00
2022-09-11T00:09:01.688Z,16.10
2022-09-11T00:11:30.393Z,16.00
2022-09-11T00:13:57.537Z,16.00
2022-09-11T00:16:26.947Z,15.70
2022-09-11T00:18:56.117Z,15.90
2022-09-11T00:21:23.542Z,15.90
2022-09-11T00:23:50.821Z,15.90
2022-09-11T00:26:18.323Z,16.00
2022-09-11T00:28:46.135Z,16.00
2022-09-11T00:31:14.801Z,15.90
2022-09-11T00:33:42.371Z,15.90
2022-09-11T00:36:16.513Z,15.80
2022-09-11T00:38:43.689Z,15.80
2022-09-11T00:41:15.490Z,15.80
2022-09-11T00:43:54.548Z,15.80
2022-09-11T00:46:23.321Z,15.70
2022-09-11T00:48:50.171Z,15.70
2022-09-11T00:51:22.470Z,15.60
2022-09-11T00:53:51.312Z,15.60
2022-09-11T00:56:18.532Z,15.60
2022-09-11T00:58:48.581Z,15.50
2022-09-11T01:01:15.197Z,15.70
2022-09-11T01:03:42.559Z,15.70
2022-09-11T01:06:10.441Z,15.70
2022-09-11T01:08:38.645Z,15.70
2022-09-11T01:11:19.755Z,15.70
2022-09-11T01:13:54.396Z,15.80
2022-09-11T01:16:28.165Z,15.80
2022-09-11T01:19:00.375Z,15.90
2022-09-11T01:21:58.204Z,15.90
2022-09-11T01:24:47.730Z,15.90
2022-09-11T01:27:41.123Z,15.90
2022-09-11T01:30:11.800Z,15.90
2022-09-11T01:32:47.223Z,15.90
2022-09-11T01:35:17.712Z,15.60
2022-09-11T01:37:52.229Z,15.80
2022-09-11T01:40:24.169Z,16.10
2022-09-11T01:42:56.206Z,15.80
2022-09-11T01:45:24.619Z,15.80
2022-09-11T01:47:52.559Z,15.80
2022-09-11T01:50:22.454Z,15.80
2022-09-11T01:52:52.989Z,15.80
2022-09-11T01:55:24.453Z,15.80
2022-09-11T01:57:56.711Z,15.80
2022-09-11T02:00:23.572Z,16.00
2022-09-11T02:02:57.231Z,15.70
2022-09-11T02:05:27.865Z,15.60
2022-09-11T02:07:58.510Z,15.60
2022-09-11T02:10:30.792Z,15.50
2022-09-11T02:13:04.713Z,15.40
2022-09-11T02:15:38.220Z,15.40
2022-09-11T02:18:15.969Z,15.40
2022-09-11T02:20:44.673Z,15.30
2022-09-11T02:23:11.352Z,15.30
2022-09-11T02:25:39.254Z,15.20
2022-09-11T02:28:06.618Z,15.30
2022-09-11T02:30:33.494Z,15.30
2022-09-11T02:33:01.011Z,15.30
2022-09-11T02:35:34.199Z,15.20
2022-09-11T02:38:10.670Z,15.30
2022-09-11T02:40:46.393Z,15.20
2022-09-11T02:43:30.236Z,15.20
2022-09-11T02:46:13.959Z,15.30
2022-09-11T02:48:50.365Z,15.30
2022-09-11T02:51:25.701Z,15.20
2022-09-11T02:54:01.640Z,15.10
2022-09-11T02:56:39.905Z,15.10
2022-09-11T02:59:16.689Z,15.10
2022-09-11T03:01:52.524Z,15.20
2022-09-11T03:04:24.808Z,15.10
2022-09-11T03:06:53.276Z,15.10
2022-09-11T03:09:20.738Z,15.10
2022-09-11T03:11:47.381Z,15.00
2022-09-11T03:14:15.550Z,15.00
2022-09-11T03:16:50.080Z,15.00
2022-09-11T03:19:19.926Z,14.80
2022-09-11T03:21:46.808Z,15.00
2022-09-11T03:24:17.778Z,14.90
2022-09-11T03:26:44.723Z,14.90
2022-09-11T03:29:11.658Z,14.90
2022-09-11T03:31:39.470Z,14.70
2022-09-11T03:34:06.487Z,14.90
2022-09-11T03:36:33.983Z,14.90
2022-09-11T03:39:00.900Z,14.90
2022-09-11T03:41:27.535Z,14.90
2022-09-11T03:43:54.165Z,14.80
2022-09-11T03:46:20.869Z,14.70
2022-09-11T03:48:48.203Z,14.80
2022-09-11T03:51:15.515Z,14.80
2022-09-11T03:53:43.525Z,14.80
2022-09-11T03:56:10.403Z,14.70
2022-09-11T03:58:37.302Z,14.70
2022-09-11T04:01:10.621Z,14.70
2022-09-11T04:03:37.277Z,14.80
2022-09-11T04:06:04.899Z,14.50
2022-09-11T04:08:32.941Z,14.40
2022-09-11T04:11:02.105Z,14.30
2022-09-11T04:13:30.193Z,14.40
2022-09-11T04:16:02.326Z,14.30
2022-09-11T04:18:30.339Z,14.30
2022-09-11T04:20:56.983Z,14.30
2022-09-11T04:23:24.575Z,14.30
2022-09-11T04:25:52.548Z,14.40
2022-09-11T04:28:19.362Z,14.40
2022-09-11T04:30:45.943Z,14.30
2022-09-11T04:33:12.537Z,14.40
2022-09-11T04:35:39.897Z,14.50
2022-09-11T04:38:07.193Z,14.60
2022-09-11T04:40:35.028Z,14.50
2022-09-11T04:43:01.996Z,14.40
2022-09-11T04:45:32.537Z,14.50
2022-09-11T04:47:59.741Z,14.50
2022-09-11T04:50:28.283Z,14.40
2022-09-11T04:52:55.129Z,14.40
2022-09-11T04:55:21.897Z,14.30
2022-09-11T04:57:49.105Z,14.30
2022-09-11T05:00:16.378Z,14.60
2022-09-11T05:02:42.931Z,14.40
2022-09-11T05:05:09.597Z,14.40
2022-09-11T05:07:37.643Z,14.90
2022-09-11T05:10:05.349Z,14.60
2022-09-11T05:12:33.316Z,14.70
2022-09-11T05:15:00.533Z,14.70
2022-09-11T05:17:27.091Z,14.80
2022-09-11T05:19:53.678Z,14.70
2022-09-11T05:22:20.364Z,14.80
2022-09-11T05:24:46.940Z,14.80
2022-09-11T05:27:13.781Z,14.90
2022-09-11T05:29:41.222Z,14.90
2022-09-11T05:32:08.697Z,15.00
2022-09-11T05:34:35.296Z,15.00
2022-09-11T05:37:01.952Z,15.00
2022-09-11T05:39:28.655Z,15.20
2022-09-11T05:41:55.217Z,14.90
2022-09-11T05:44:23.448Z,15.00
2022-09-11T05:46:50.051Z,15.10
2022-09-11T05:49:17.679Z,15.10
2022-09-11T05:51:44.487Z,15.20
2022-09-11T05:54:11.088Z,14.90
2022-09-11T05:56:37.676Z,15.30
2022-09-11T05:59:10.248Z,15.30
2022-09-11T06:01:37.006Z,15.30
2022-09-11T06:04:08.446Z,15.30
2022-09-11T06:06:35.785Z,15.10
2022-09-11T06:09:02.549Z,15.20
2022-09-11T06:11:29.365Z,15.20
2022-09-11T06:13:56.230Z,15.30
2022-09-11T06:16:24.792Z,15.40
2022-09-11T06:18:54.027Z,15.40
2022-09-11T06:21:22.872Z,15.50
2022-09-11T06:23:51.636Z,15.60
2022-09-11T06:26:20.921Z,15.70
2022-09-11T06:28:47.983Z,15.80
2022-09-11T06:31:16.344Z,15.90
2022-09-11T06:33:43.686Z,15.80
2022-09-11T06:36:12.949Z,15.90
2022-09-11T06:38:39.959Z,15.90
2022-09-11T06:41:11.896Z,15.90
2022-09-11T06:43:38.698Z,15.90
2022-09-11T06:46:06.890Z,15.90
2022-09-11T06:48:33.712Z,15.90
2022-09-11T06:51:03.275Z,16.00
2022-09-11T06:53:30.098Z,16.00
2022-09-11T06:55:59.598Z,16.20
2022-09-11T06:58:28.512Z,16.00
2022-09-11T07:00:55.389Z,16.00
2022-09-11T07:03:21.991Z,16.10
2022-09-11T07:05:48.584Z,16.20
2022-09-11T07:08:15.400Z,16.20
2022-09-11T07:10:42.002Z,16.20
2022-09-11T07:13:08.632Z,16.20
2022-09-11T07:15:35.924Z,16.30
2022-09-11T07:18:02.575Z,16.30
2022-09-11T07:20:29.255Z,16.40
2022-09-11T07:22:56.001Z,16.70
2022-09-11T07:25:22.567Z,16.40
2022-09-11T07:27:50.417Z,16.50
2022-09-11T07:30:17.678Z,16.50
2022-09-11T07:32:44.950Z,16.50
2022-09-11T07:35:12.160Z,16.70
2022-09-11T07:37:38.728Z,16.90
2022-09-11T07:40:07.393Z,17.00
2022-09-11T07:42:34.268Z,16.90
2022-09-11T07:45:00.888Z,17.20
2022-09-11T07:47:27.868Z,17.30
2022-09-11T07:49:55.362Z,17.20
2022-09-11T07:52:21.963Z,16.90
2022-09-11T07:54:50.309Z,17.00
2022-09-11T07:57:18.618Z,17.20
2022-09-11T07:59:45.790Z,17.30
2022-09-11T08:02:12.541Z,17.50
2022-09-11T08:04:39.197Z,17.70
2022-09-11T08:07:06.514Z,17.90
2022-09-11T08:09:33.689Z,18.20
2022-09-11T08:12:01.306Z,18.10
2022-09-11T08:14:28.553Z,18.10
2022-09-11T08:16:56.224Z,18.40
2022-09-11T08:19:23.590Z,18.30
2022-09-11T08:21:51.944Z,18.40
2022-09-11T08:24:20.746Z,18.40
2022-09-11T08:26:49.105Z,18.40
2022-09-11T08:29:17.547Z,18.20
2022-09-11T08:31:44.716Z,18.30
2022-09-11T08:34:22.295Z,18.20
2022-09-11T08:36:51.297Z,18.00
2022-09-11T08:39:18.205Z,18.00
2022-09-11T08:41:48.339Z,17.80
2022-09-11T08:44:21.742Z,18.00
2022-09-11T08:46:52.992Z,18.20
2022-09-11T08:49:25.191Z,18.20
2022-09-11T08:51:55.052Z,18.10
2022-09-11T08:54:28.361Z,18.10
2022-09-11T08:57:05.086Z,18.20
2022-09-11T08:59:42.611Z,18.20
2022-09-11T09:02:25.276Z,18.10
2022-09-11T09:05:13.822Z,18.20
2022-09-11T09:07:54.054Z,18.20
2022-09-11T09:10:33.341Z,18.10
2022-09-11T09:13:14.540Z,18.10
2022-09-11T09:15:47.762Z,18.10
2022-09-11T09:18:23.041Z,17.80
2022-09-11T09:21:00.197Z,17.70
2022-09-11T09:23:32.797Z,17.60
2022-09-11T09:26:01.443Z,17.80
2022-09-11T09:28:38.473Z,17.90
2022-09-11T09:31:10.323Z,18.10
2022-09-11T09:33:45.979Z,18.40
2022-09-11T09:36:16.048Z,18.70
2022-09-11T09:38:43.463Z,18.90
2022-09-11T09:42:04.437Z,19.10
2022-09-11T09:44:43.903Z,19.00
2022-09-11T09:47:12.403Z,19.00
2022-09-11T09:49:39.713Z,18.80
2022-09-11T09:52:16.425Z,18.70
2022-09-11T09:54:46.532Z,18.60
2022-09-11T09:57:13.165Z,18.40
2022-09-11T10:00:13.847Z,18.40
2022-09-11T10:02:50.172Z,18.60
2022-09-11T10:05:20.382Z,18.50
2022-09-11T10:07:48.984Z,18.70
2022-09-11T10:10:25.986Z,18.80
2022-09-11T10:13:03.584Z,19.00
2022-09-11T10:15:41.491Z,19.20
2022-09-11T10:18:37.373Z,19.40
2022-09-11T10:21:22.497Z,19.60
2022-09-11T10:23:54.099Z,19.60
2022-09-11T10:26:28.599Z,19.60
2022-09-11T10:29:00.421Z,19.80
2022-09-11T10:31:27.405Z,19.60
2022-09-11T10:33:57.093Z,19.70
2022-09-11T10:36:25.195Z,20.30
2022-09-11T10:38:52.551Z,20.70
2022-09-11T10:41:25.416Z,21.10
2022-09-11T10:43:59.377Z,20.80
2022-09-11T10:46:29.047Z,20.60
2022-09-11T10:48:58.761Z,20.50
2022-09-11T10:51:29.442Z,20.40
2022-09-11T10:54:13.869Z,20.20
2022-09-11T10:56:57.012Z,19.90
2022-09-11T10:59:32.339Z,19.60
2022-09-11T11:01:59.020Z,19.50
2022-09-11T11:04:31.148Z,19.50
2022-09-11T11:07:06.948Z,19.40
2022-09-11T11:09:48.561Z,19.30
2022-09-11T11:12:31.761Z,19.20
2022-09-11T11:15:24.969Z,19.10
2022-09-11T11:18:13.246Z,19.00
2022-09-11T11:20:51.483Z,18.80
2022-09-11T11:23:31.343Z,18.90
2022-09-11T11:26:09.385Z,18.90
2022-09-11T11:28:49.739Z,18.90
2022-09-11T11:31:33.513Z,19.10
2022-09-11T11:34:20.196Z,19.20
2022-09-11T11:36:53.530Z,19.40
2022-09-11T11:39:25.781Z,19.90
2022-09-11T11:42:04.377Z,20.00
2022-09-11T11:44:36.227Z,20.00
2022-09-11T11:47:06.485Z,20.20
2022-09-11T11:49:48.300Z,20.80
2022-09-11T11:52:36.259Z,21.30
2022-09-11T11:55:16.159Z,21.60
2022-09-11T11:57:47.154Z,21.50
2022-09-11T12:00:17.229Z,21.50
2022-09-11T12:02:50.262Z,21.70
2022-09-11T12:05:20.386Z,21.70
2022-09-11T12:07:47.824Z,21.70
2022-09-11T12:10:29.695Z,21.60
2022-09-11T12:13:00.141Z,21.70
2022-09-11T12:15:29.586Z,21.80
2022-09-11T12:18:02.449Z,21.90
2022-09-11T12:20:38.525Z,21.80
2022-09-11T12:23:29.628Z,21.80
2022-09-11T12:26:17.413Z,21.50
2022-09-11T12:28:44.895Z,21.30
2022-09-11T12:31:13.420Z,21.10
2022-09-11T12:33:53.846Z,20.80
2022-09-11T12:36:25.237Z,20.60
2022-09-11T12:38:56.267Z,20.30
2022-09-11T12:41:26.747Z,20.10
2022-09-11T12:43:53.945Z,20.10
2022-09-11T12:47:00.208Z,20.00
2022-09-11T12:49:27.471Z,19.90
2022-09-11T12:51:55.916Z,19.30
2022-09-11T12:54:26.680Z,19.80
2022-09-11T12:57:00.253Z,19.90
2022-09-11T12:59:33.795Z,20.10
2022-09-11T13:02:02.285Z,20.00
2022-09-11T13:04:30.851Z,19.90
2022-09-11T13:06:58.975Z,19.90
2022-09-11T13:09:29.443Z,20.00
2022-09-11T13:11:57.492Z,20.00
2022-09-11T13:14:49.943Z,19.90
2022-09-11T13:17:25.170Z,19.80
2022-09-11T13:19:53.154Z,19.90
2022-09-11T13:22:25.393Z,20.00
2022-09-11T13:25:05.650Z,20.00
2022-09-11T13:27:36.867Z,19.90
2022-09-11T13:30:05.638Z,20.10
2022-09-11T13:32:32.526Z,20.10
2022-09-11T13:35:03.910Z,20.50
2022-09-11T13:37:36.483Z,20.70
2022-09-11T13:40:07.254Z,20.90
2022-09-11T13:42:35.206Z,20.80
2022-09-11T13:45:03.533Z,20.70
2022-09-11T13:47:31.038Z,20.60
2022-09-11T13:50:00.577Z,20.80
2022-09-11T13:52:31.032Z,20.60
2022-09-11T13:55:02.671Z,20.40
2022-09-11T13:57:31.310Z,20.30
2022-09-11T13:59:59.577Z,20.30
2022-09-11T14:02:39.609Z,20.40
2022-09-11T14:05:13.094Z,20.20
2022-09-11T14:07:55.848Z,21.90
2022-09-11T14:10:29.556Z,24.30
2022-09-11T14:13:04.742Z,24.80
2022-09-11T14:15:39.379Z,23.50
2022-09-11T14:18:11.681Z,22.70
2022-09-11T14:20:43.402Z,22.70
2022-09-11T14:23:18.523Z,22.70
2022-09-11T14:26:04.140Z,22.50
2022-09-11T14:28:43.049Z,22.40
2022-09-11T14:31:11.799Z,22.40
2022-09-11T14:33:38.550Z,22.60
2022-09-11T14:36:13.107Z,22.20
2022-09-11T14:38:40.064Z,22.50
2022-09-11T14:41:07.323Z,22.60
2022-09-11T14:43:37.535Z,23.00
2022-09-11T14:46:05.203Z,23.40
2022-09-11T14:48:34.602Z,23.10
2022-09-11T14:51:08.777Z,23.50
2022-09-11T14:53:38.046Z,23.10
2022-09-11T14:56:05.046Z,22.20
2022-09-11T14:58:31.661Z,21.80
2022-09-11T15:00:58.307Z,21.50
2022-09-11T15:03:25.702Z,22.40
2022-09-11T15:05:56.199Z,22.00
2022-09-11T15:08:23.690Z,21.60
2022-09-11T15:10:52.725Z,21.20
2022-09-11T15:13:20.359Z,20.80
2022-09-11T15:15:47.399Z,20.70
2022-09-11T15:18:14.487Z,20.50
2022-09-11T15:20:41.825Z,20.10
2022-09-11T15:23:08.644Z,19.90
2022-09-11T15:25:35.324Z,19.70
2022-09-11T15:28:02.092Z,19.60
2022-09-11T15:30:28.786Z,19.30
2022-09-11T15:32:55.669Z,19.10
2022-09-11T15:35:22.522Z,19.00
2022-09-11T15:37:50.156Z,19.10
2022-09-11T15:40:16.973Z,19.20
2022-09-11T15:42:43.679Z,19.40
2022-09-11T15:45:12.291Z,19.60
2022-09-11T15:47:39.662Z,19.70
2022-09-11T15:50:07.035Z,19.60
2022-09-11T15:52:34.190Z,19.60
2022-09-11T15:55:01.698Z,19.50
2022-09-11T15:57:28.499Z,19.40
2022-09-11T15:59:55.096Z,19.20
2022-09-11T16:02:23.215Z,19.10
2022-09-11T16:04:53.583Z,19.00
2022-09-11T16:07:20.897Z,18.90
2022-09-11T16:09:47.718Z,18.80
2022-09-11T16:12:14.991Z,18.80
2022-09-11T16:14:41.815Z,18.70
2022-09-11T16:17:08.661Z,18.60
2022-09-11T16:19:35.795Z,18.70
2022-09-11T16:22:05.036Z,18.60
2022-09-11T16:24:36.522Z,18.60
2022-09-11T16:27:05.463Z,18.70
2022-09-11T16:29:59.034Z,18.50
2022-09-11T16:32:28.824Z,18.50
2022-09-11T16:34:56.491Z,18.30
2022-09-11T16:37:23.197Z,18.50
2022-09-11T16:39:50.076Z,18.50
2022-09-11T16:42:20.326Z,18.50
2022-09-11T16:44:48.011Z,18.50
2022-09-11T16:47:15.673Z,18.50
2022-09-11T16:50:08.804Z,18.50
2022-09-11T16:52:29.340Z,18.40
2022-09-11T16:54:56.027Z,18.40
2022-09-11T16:57:22.624Z,18.40
2022-09-11T16:59:50.218Z,18.50
2022-09-11T17:02:16.875Z,18.40
2022-09-11T17:04:43.518Z,18.40
2022-09-11T17:07:10.184Z,18.30
2022-09-11T17:09:37.095Z,18.30
2022-09-11T17:12:03.882Z,18.20
2022-09-11T17:14:30.457Z,18.10
2022-09-11T17:16:57.743Z,18.10
2022-09-11T17:19:24.315Z,18.00
2022-09-11T17:21:51.017Z,18.00
2022-09-11T17:24:20.881Z,18.00
2022-09-11T17:26:48.594Z,17.90
2022-09-11T17:29:15.276Z,18.00
2022-09-11T17:31:41.924Z,17.90
2022-09-11T17:34:09.221Z,18.00
2022-09-11T17:36:35.934Z,17.80
2022-09-11T17:39:03.272Z,17.70
2022-09-11T17:41:30.457Z,17.70
2022-09-11T17:43:57.784Z,17.70
2022-09-11T17:46:24.488Z,17.60
2022-09-11T17:48:51.396Z,17.60
2022-09-11T17:51:21.194Z,17.60
2022-09-11T17:53:49.296Z,17.60
2022-09-11T17:56:18.465Z,17.50
2022-09-11T17:58:48.827Z,17.50
2022-09-11T18:01:17.084Z,17.40
2022-09-11T18:03:49.112Z,17.30
2022-09-11T18:06:20.524Z,17.30
2022-09-11T18:08:47.233Z,17.20
2022-09-11T18:11:13.977Z,17.20
2022-09-11T18:13:41.990Z,17.20
2022-09-11T18:16:11.641Z,17.20
2022-09-11T18:18:39.109Z,17.10
2022-09-11T18:21:06.713Z,17.10
2022-09-11T18:23:36.846Z,17.00
2022-09-11T18:26:04.358Z,16.90
2022-09-11T18:28:31.034Z,16.90
2022-09-11T18:31:01.334Z,16.90
2022-09-11T18:33:28.127Z,16.80
2022-09-11T18:35:54.744Z,16.80
2022-09-11T18:38:21.313Z,16.80
2022-09-11T18:40:56.004Z,16.70
2022-09-11T18:43:22.736Z,16.60
2022-09-11T18:45:49.465Z,16.70
2022-09-11T18:48:16.762Z,16.60
2022-09-11T18:50:46.401Z,16.60
2022-09-11T18:53:14.154Z,16.60
2022-09-11T18:55:41.179Z,16.50
2022-09-11T18:58:08.418Z,16.50
2022-09-11T19:00:36.481Z,16.60
2022-09-11T19:03:03.275Z,16.40
2022-09-11T19:05:30.421Z,16.40
2022-09-11T19:08:00.430Z,16.40
2022-09-11T19:10:28.075Z,16.40
2022-09-11T19:12:54.754Z,16.40
2022-09-11T19:15:22.361Z,16.40
2022-09-11T19:17:49.573Z,16.40
2022-09-11T19:20:16.407Z,16.40
2022-09-11T19:22:43.578Z,16.40
2022-09-11T19:25:10.222Z,16.40
2022-09-11T19:27:36.912Z,16.30
2022-09-11T19:30:05.525Z,16.30
2022-09-11T19:32:33.377Z,16.30
2022-09-11T19:35:00.443Z,16.30
2022-09-11T19:37:27.822Z,16.20
2022-09-11T19:39:56.400Z,16.20
2022-09-11T19:42:23.683Z,16.40
2022-09-11T19:44:54.261Z,16.20
2022-09-11T19:47:24.167Z,16.30
2022-09-11T19:49:52.204Z,16.40
2022-09-11T19:52:18.770Z,16.20
2022-09-11T19:54:45.364Z,16.10
2022-09-11T19:57:11.939Z,16.10
2022-09-11T19:59:38.645Z,16.00
2022-09-11T20:02:05.300Z,16.10
2022-09-11T20:04:32.555Z,16.00
2022-09-11T20:07:00.405Z,16.00
2022-09-11T20:09:31.442Z,16.00
2022-09-11T20:12:01.205Z,16.00
2022-09-11T20:14:28.862Z,15.90
2022-09-11T20:16:55.807Z,15.90
2022-09-11T20:19:22.915Z,15.90
2022-09-11T20:21:49.771Z,16.00
2022-09-11T20:24:17.203Z,16.00
2022-09-11T20:26:43.818Z,15.90
2022-09-11T20:29:13.634Z,15.90
2022-09-11T20:31:49.123Z,15.80
2022-09-11T20:34:16.720Z,15.80
2022-09-11T20:36:43.423Z,15.80
2022-09-11T20:39:11.885Z,15.80
2022-09-11T20:41:39.189Z,15.80
2022-09-11T20:44:05.778Z,15.70
2022-09-11T20:46:32.438Z,15.70
2022-09-11T20:49:00.525Z,15.70
2022-09-11T20:51:27.446Z,15.70
2022-09-11T20:53:55.396Z,15.60
2022-09-11T20:56:22.942Z,15.70
2022-09-11T20:58:50.720Z,15.50
2022-09-11T21:01:20.697Z,15.60
2022-09-11T21:03:49.142Z,15.60
2022-09-11T21:06:16.432Z,15.60
2022-09-11T21:08:44.054Z,15.60
2022-09-11T21:11:13.919Z,15.60
2022-09-11T21:13:41.721Z,15.50
2022-09-11T21:16:10.967Z,15.50
2022-09-11T21:18:39.105Z,15.50
2022-09-11T21:21:06.610Z,15.50
2022-09-11T21:23:33.320Z,15.50
2022-09-11T21:25:59.937Z,15.50
2022-09-11T21:28:26.679Z,15.50
2022-09-11T21:30:59.307Z,15.50
2022-09-11T21:33:26.824Z,15.60
2022-09-11T21:35:54.450Z,15.50
2022-09-11T21:38:23.654Z,15.50
2022-09-11T21:40:50.295Z,15.50
2022-09-11T21:43:17.221Z,15.60
2022-09-11T21:45:43.845Z,15.60
2022-09-11T21:48:10.501Z,15.60
2022-09-11T21:50:38.751Z,15.60
2022-09-11T21:53:06.478Z,15.60
2022-09-11T21:55:37.429Z,15.60
2022-09-11T21:58:05.310Z,15.50
2022-09-11T22:00:34.437Z,15.60
2022-09-11T22:03:01.222Z,15.60
2022-09-11T22:05:27.878Z,15.60
2022-09-11T22:07:55.453Z,15.60
2022-09-11T22:10:22.728Z,15.50
2022-09-11T22:12:49.512Z,15.50
2022-09-11T22:15:16.579Z,15.50
2022-09-11T22:17:43.386Z,15.50
2022-09-11T22:20:10.164Z,15.60
2022-09-11T22:22:37.356Z,15.60
2022-09-11T22:25:06.034Z,15.60
2022-09-11T22:27:33.068Z,15.60
2022-09-11T22:30:00.148Z,15.60
2022-09-11T22:32:27.272Z,15.60
2022-09-11T22:34:53.915Z,15.60
2022-09-11T22:37:20.493Z,15.70
2022-09-11T22:39:47.134Z,15.80
2022-09-11T22:42:14.483Z,15.70
2022-09-11T22:44:41.704Z,15.60
2022-09-11T22:47:08.292Z,15.60
2022-09-11T22:49:34.903Z,15.70
2022-09-11T22:52:01.968Z,15.50
2022-09-11T22:54:28.822Z,15.70
2022-09-11T22:56:55.477Z,15.60
2022-09-11T22:59:22.753Z,15.60
2022-09-11T23:01:49.454Z,15.60
2022-09-11T23:04:16.355Z,15.70
2022-09-11T23:07:01.248Z,15.50
2022-09-11T23:09:27.881Z,15.70
2022-09-11T23:11:54.941Z,15.60
2022-09-11T23:14:22.265Z,15.80
2022-09-11T23:16:48.829Z,15.60
2022-09-11T23:19:15.438Z,15.50
2022-09-11T23:21:42.585Z,15.60
2022-09-11T23:24:12.765Z,15.30
2022-09-11T23:26:39.685Z,15.40
2022-09-11T23:29:06.393Z,15.20
2022-09-11T23:31:34.655Z,15.20
2022-09-11T23:34:03.895Z,15.20
2022-09-11T23:36:31.326Z,15.20
2022-09-11T23:38:58.564Z,15.00
2022-09-11T23:41:25.734Z,15.20
2022-09-11T23:43:53.198Z,15.00
2022-09-11T23:46:20.167Z,15.00
2022-09-11T23:48:47.518Z,14.80
2022-09-11T23:51:14.905Z,14.90
2022-09-11T23:53:44.254Z,14.90
2022-09-11T23:56:13.459Z,14.80
2022-09-11T23:58:40.402Z,14.80
